sensor_id;sensor_type;location;lat;lon;timestamp;temperature;humidity
29939;DHT22;16799;50.844;5.304;2023-04-25T00:01:20;9.40;99.90
29939;DHT22;16799;50.844;5.304;2023-04-25T00:03:47;9.50;99.90
29939;DHT22;16799;50.844;5.304;2023-04-25T00:06:13;9.50;99.90
29939;DHT22;16799;50.844;5.304;2023-04-25T00:08:40;9.50;99.90
29939;DHT22;16799;50.844;5.304;2023-04-25T00:11:05;9.40;99.90
29939;DHT22;16799;50.844;5.304;2023-04-25T00:13:31;9.40;99.90
29939;DHT22;16799;50.844;5.304;2023-04-25T00:15:57;9.50;99.90
29939;DHT22;16799;50.844;5.304;2023-04-25T00:18:23;9.40;99.90
29939;DHT22;16799;50.844;5.304;2023-04-25T00:20:50;9.40;99.90
29939;DHT22;16799;50.844;5.304;2023-04-25T00:23:16;9.30;99.90
29939;DHT22;16799;50.844;5.304;2023-04-25T00:25:46;8.90;99.90
29939;DHT22;16799;50.844;5.304;2023-04-25T00:28:12;8.60;99.90
29939;DHT22;16799;50.844;5.304;2023-04-25T00:30:38;8.40;99.90
29939;DHT22;16799;50.844;5.304;2023-04-25T00:33:04;8.30;99.90
29939;DHT22;16799;50.844;5.304;2023-04-25T00:35:31;8.40;99.90
29939;DHT22;16799;50.844;5.304;2023-04-25T00:37:56;8.40;99.90
29939;DHT22;16799;50.844;5.304;2023-04-25T00:40:22;8.60;99.90
29939;DHT22;16799;50.844;5.304;2023-04-25T00:42:47;8.70;99.90
29939;DHT22;16799;50.844;5.304;2023-04-25T00:45:14;8.90;99.90
29939;DHT22;16799;50.844;5.304;2023-04-25T00:47:41;9.00;99.90
29939;DHT22;16799;50.844;5.304;2023-04-25T00:50:08;9.10;99.90
29939;DHT22;16799;50.844;5.304;2023-04-25T00:52:35;8.90;99.90
29939;DHT22;16799;50.844;5.304;2023-04-25T00:55:01;9.00;99.90
29939;DHT22;16799;50.844;5.304;2023-04-25T00:57:27;9.10;99.90
29939;DHT22;16799;50.844;5.304;2023-04-25T00:59:54;9.00;99.90
29939;DHT22;16799;50.844;5.304;2023-04-25T01:02:20;9.00;99.90
29939;DHT22;16799;50.844;5.304;2023-04-25T01:04:48;9.00;99.90
29939;DHT22;16799;50.844;5.304;2023-04-25T01:07:14;9.10;99.90
29939;DHT22;16799;50.844;5.304;2023-04-25T01:09:41;9.20;99.90
29939;DHT22;16799;50.844;5.304;2023-04-25T01:12:06;9.00;99.90
29939;DHT22;16799;50.844;5.304;2023-04-25T01:14:32;9.10;99.90
29939;DHT22;16799;50.844;5.304;2023-04-25T01:16:58;9.10;99.90
29939;DHT22;16799;50.844;5.304;2023-04-25T01:19:24;9.30;99.90
29939;DHT22;16799;50.844;5.304;2023-04-25T01:21:50;9.30;99.90
29939;DHT22;16799;50.844;5.304;2023-04-25T01:24:16;9.40;99.90
29939;DHT22;16799;50.844;5.304;2023-04-25T01:26:43;9.40;99.90
29939;DHT22;16799;50.844;5.304;2023-04-25T01:29:17;9.40;99.90
29939;DHT22;16799;50.844;5.304;2023-04-25T01:31:44;9.30;99.90
29939;DHT22;16799;50.844;5.304;2023-04-25T01:34:11;9.20;99.90
29939;DHT22;16799;50.844;5.304;2023-04-25T01:36:37;9.10;99.90
29939;DHT22;16799;50.844;5.304;2023-04-25T01:39:03;9.10;99.90
29939;DHT22;16799;50.844;5.304;2023-04-25T01:41:29;9.10;99.90
29939;DHT22;16799;50.844;5.304;2023-04-25T01:43:55;9.00;99.90
29939;DHT22;16799;50.844;5.304;2023-04-25T01:46:21;9.10;99.90
29939;DHT22;16799;50.844;5.304;2023-04-25T01:48:46;9.00;99.90
29939;DHT22;16799;50.844;5.304;2023-04-25T01:51:12;9.00;99.90
29939;DHT22;16799;50.844;5.304;2023-04-25T01:53:39;8.80;99.90
29939;DHT22;16799;50.844;5.304;2023-04-25T01:56:05;8.90;99.90
29939;DHT22;16799;50.844;5.304;2023-04-25T01:58:31;8.70;99.90
29939;DHT22;16799;50.844;5.304;2023-04-25T02:00:56;8.70;99.90
29939;DHT22;16799;50.844;5.304;2023-04-25T02:03:22;8.70;99.90
29939;DHT22;16799;50.844;5.304;2023-04-25T02:05:48;8.80;99.90
29939;DHT22;16799;50.844;5.304;2023-04-25T02:08:13;8.70;99.90
29939;DHT22;16799;50.844;5.304;2023-04-25T02:10:39;8.70;99.90
29939;DHT22;16799;50.844;5.304;2023-04-25T02:13:05;8.40;99.90
29939;DHT22;16799;50.844;5.304;2023-04-25T02:15:31;8.30;99.90
29939;DHT22;16799;50.844;5.304;2023-04-25T02:17:57;8.40;99.90
29939;DHT22;16799;50.844;5.304;2023-04-25T02:20:24;8.40;99.90
29939;DHT22;16799;50.844;5.304;2023-04-25T02:22:50;8.50;99.90
29939;DHT22;16799;50.844;5.304;2023-04-25T02:25:17;8.50;99.90
29939;DHT22;16799;50.844;5.304;2023-04-25T02:27:43;8.50;99.90
29939;DHT22;16799;50.844;5.304;2023-04-25T02:30:09;8.60;99.90
29939;DHT22;16799;50.844;5.304;2023-04-25T02:32:34;8.60;99.90
29939;DHT22;16799;50.844;5.304;2023-04-25T02:35:01;8.60;99.90
29939;DHT22;16799;50.844;5.304;2023-04-25T02:37:38;8.70;99.90
29939;DHT22;16799;50.844;5.304;2023-04-25T02:40:04;8.60;99.90
29939;DHT22;16799;50.844;5.304;2023-04-25T02:42:30;8.70;99.90
29939;DHT22;16799;50.844;5.304;2023-04-25T02:44:56;8.60;99.90
29939;DHT22;16799;50.844;5.304;2023-04-25T02:47:21;8.40;99.90
29939;DHT22;16799;50.844;5.304;2023-04-25T02:49:47;8.40;99.90
29939;DHT22;16799;50.844;5.304;2023-04-25T02:52:13;8.50;99.90
29939;DHT22;16799;50.844;5.304;2023-04-25T02:54:40;8.40;99.90
29939;DHT22;16799;50.844;5.304;2023-04-25T02:57:06;8.40;99.90
29939;DHT22;16799;50.844;5.304;2023-04-25T02:59:32;8.40;99.90
29939;DHT22;16799;50.844;5.304;2023-04-25T03:01:58;8.40;99.90
29939;DHT22;16799;50.844;5.304;2023-04-25T03:04:23;8.50;99.90
29939;DHT22;16799;50.844;5.304;2023-04-25T03:06:50;8.50;99.90
29939;DHT22;16799;50.844;5.304;2023-04-25T03:09:16;8.60;99.90
29939;DHT22;16799;50.844;5.304;2023-04-25T03:11:41;8.60;99.90
29939;DHT22;16799;50.844;5.304;2023-04-25T03:14:07;8.50;99.90
29939;DHT22;16799;50.844;5.304;2023-04-25T03:16:33;8.40;99.90
29939;DHT22;16799;50.844;5.304;2023-04-25T03:18:59;8.30;99.90
29939;DHT22;16799;50.844;5.304;2023-04-25T03:21:25;8.50;99.90
29939;DHT22;16799;50.844;5.304;2023-04-25T03:23:51;8.50;99.90
29939;DHT22;16799;50.844;5.304;2023-04-25T03:26:17;8.50;99.90
29939;DHT22;16799;50.844;5.304;2023-04-25T03:28:43;8.50;99.90
29939;DHT22;16799;50.844;5.304;2023-04-25T03:31:08;8.40;99.90
29939;DHT22;16799;50.844;5.304;2023-04-25T03:33:34;8.40;99.90
29939;DHT22;16799;50.844;5.304;2023-04-25T03:36:00;8.30;99.90
29939;DHT22;16799;50.844;5.304;2023-04-25T03:38:25;8.20;99.90
29939;DHT22;16799;50.844;5.304;2023-04-25T03:40:51;8.30;99.90
29939;DHT22;16799;50.844;5.304;2023-04-25T03:43:17;8.30;99.90
29939;DHT22;16799;50.844;5.304;2023-04-25T03:45:43;8.30;99.90
29939;DHT22;16799;50.844;5.304;2023-04-25T03:48:08;8.20;99.90
29939;DHT22;16799;50.844;5.304;2023-04-25T03:50:34;8.20;99.90
29939;DHT22;16799;50.844;5.304;2023-04-25T03:53:00;8.30;99.90
29939;DHT22;16799;50.844;5.304;2023-04-25T03:55:26;8.30;99.90
29939;DHT22;16799;50.844;5.304;2023-04-25T03:57:51;8.40;99.90
29939;DHT22;16799;50.844;5.304;2023-04-25T04:00:17;8.40;99.90
29939;DHT22;16799;50.844;5.304;2023-04-25T04:02:43;8.40;99.90
29939;DHT22;16799;50.844;5.304;2023-04-25T04:05:08;8.40;99.90
29939;DHT22;16799;50.844;5.304;2023-04-25T04:07:34;8.40;99.90
29939;DHT22;16799;50.844;5.304;2023-04-25T04:10:06;8.30;99.90
29939;DHT22;16799;50.844;5.304;2023-04-25T04:12:32;8.20;99.90
29939;DHT22;16799;50.844;5.304;2023-04-25T04:14:57;8.20;99.90
29939;DHT22;16799;50.844;5.304;2023-04-25T04:17:23;8.30;99.90
29939;DHT22;16799;50.844;5.304;2023-04-25T04:19:48;8.30;99.90
29939;DHT22;16799;50.844;5.304;2023-04-25T04:22:15;8.20;99.90
29939;DHT22;16799;50.844;5.304;2023-04-25T04:24:41;8.20;99.90
29939;DHT22;16799;50.844;5.304;2023-04-25T04:27:09;8.20;99.90
29939;DHT22;16799;50.844;5.304;2023-04-25T04:29:35;8.10;99.90
29939;DHT22;16799;50.844;5.304;2023-04-25T04:32:02;8.20;99.90
29939;DHT22;16799;50.844;5.304;2023-04-25T04:34:28;8.20;99.90
29939;DHT22;16799;50.844;5.304;2023-04-25T04:36:54;8.20;99.90
29939;DHT22;16799;50.844;5.304;2023-04-25T04:39:20;8.00;99.90
29939;DHT22;16799;50.844;5.304;2023-04-25T04:41:46;8.10;99.90
29939;DHT22;16799;50.844;5.304;2023-04-25T04:44:12;8.00;99.90
29939;DHT22;16799;50.844;5.304;2023-04-25T04:46:39;7.90;99.90
29939;DHT22;16799;50.844;5.304;2023-04-25T04:49:06;7.70;99.90
29939;DHT22;16799;50.844;5.304;2023-04-25T04:51:31;7.70;99.90
29939;DHT22;16799;50.844;5.304;2023-04-25T04:53:58;7.80;99.90
29939;DHT22;16799;50.844;5.304;2023-04-25T04:56:28;7.70;99.90
29939;DHT22;16799;50.844;5.304;2023-04-25T04:58:54;7.70;99.90
29939;DHT22;16799;50.844;5.304;2023-04-25T05:01:20;7.80;99.90
29939;DHT22;16799;50.844;5.304;2023-04-25T05:03:46;7.80;99.90
29939;DHT22;16799;50.844;5.304;2023-04-25T05:06:11;7.80;99.90
29939;DHT22;16799;50.844;5.304;2023-04-25T05:08:37;7.70;99.90
29939;DHT22;16799;50.844;5.304;2023-04-25T05:11:03;7.70;99.90
29939;DHT22;16799;50.844;5.304;2023-04-25T05:13:28;7.70;99.90
29939;DHT22;16799;50.844;5.304;2023-04-25T05:15:54;7.80;99.90
29939;DHT22;16799;50.844;5.304;2023-04-25T05:18:20;7.60;99.90
29939;DHT22;16799;50.844;5.304;2023-04-25T05:20:45;7.70;99.90
29939;DHT22;16799;50.844;5.304;2023-04-25T05:23:11;7.70;99.90
29939;DHT22;16799;50.844;5.304;2023-04-25T05:25:37;7.60;99.90
29939;DHT22;16799;50.844;5.304;2023-04-25T05:28:02;7.70;99.90
29939;DHT22;16799;50.844;5.304;2023-04-25T05:30:28;7.80;99.90
29939;DHT22;16799;50.844;5.304;2023-04-25T05:32:54;7.90;99.90
29939;DHT22;16799;50.844;5.304;2023-04-25T05:35:19;7.60;99.90
29939;DHT22;16799;50.844;5.304;2023-04-25T05:37:45;7.30;99.90
29939;DHT22;16799;50.844;5.304;2023-04-25T05:40:11;7.10;99.90
29939;DHT22;16799;50.844;5.304;2023-04-25T05:42:37;7.00;99.90
29939;DHT22;16799;50.844;5.304;2023-04-25T05:45:02;7.10;99.90
29939;DHT22;16799;50.844;5.304;2023-04-25T05:47:28;7.00;99.90
29939;DHT22;16799;50.844;5.304;2023-04-25T05:49:54;6.80;99.90
29939;DHT22;16799;50.844;5.304;2023-04-25T05:52:19;6.90;99.90
29939;DHT22;16799;50.844;5.304;2023-04-25T05:54:45;7.10;99.90
29939;DHT22;16799;50.844;5.304;2023-04-25T05:57:25;7.30;99.90
29939;DHT22;16799;50.844;5.304;2023-04-25T05:59:51;7.50;99.90
29939;DHT22;16799;50.844;5.304;2023-04-25T06:02:20;7.50;99.90
29939;DHT22;16799;50.844;5.304;2023-04-25T06:04:48;7.60;99.90
29939;DHT22;16799;50.844;5.304;2023-04-25T06:07:14;7.70;99.90
29939;DHT22;16799;50.844;5.304;2023-04-25T06:09:40;7.90;99.90
29939;DHT22;16799;50.844;5.304;2023-04-25T06:12:06;8.10;99.90
29939;DHT22;16799;50.844;5.304;2023-04-25T06:14:33;8.20;99.90
29939;DHT22;16799;50.844;5.304;2023-04-25T06:16:59;8.30;99.90
29939;DHT22;16799;50.844;5.304;2023-04-25T06:19:25;8.30;99.90
29939;DHT22;16799;50.844;5.304;2023-04-25T06:21:50;8.30;99.90
29939;DHT22;16799;50.844;5.304;2023-04-25T06:24:16;8.30;99.90
29939;DHT22;16799;50.844;5.304;2023-04-25T06:26:42;8.30;99.90
29939;DHT22;16799;50.844;5.304;2023-04-25T06:29:07;8.20;99.90
29939;DHT22;16799;50.844;5.304;2023-04-25T06:31:33;8.00;99.90
29939;DHT22;16799;50.844;5.304;2023-04-25T06:33:59;7.70;99.90
29939;DHT22;16799;50.844;5.304;2023-04-25T06:36:25;7.60;99.90
29939;DHT22;16799;50.844;5.304;2023-04-25T06:38:51;7.60;99.90
29939;DHT22;16799;50.844;5.304;2023-04-25T06:41:20;7.40;99.90
29939;DHT22;16799;50.844;5.304;2023-04-25T06:43:46;7.50;99.90
29939;DHT22;16799;50.844;5.304;2023-04-25T06:46:12;7.50;99.90
29939;DHT22;16799;50.844;5.304;2023-04-25T06:48:37;7.50;99.90
29939;DHT22;16799;50.844;5.304;2023-04-25T06:51:03;7.50;99.90
29939;DHT22;16799;50.844;5.304;2023-04-25T06:53:29;7.60;99.90
29939;DHT22;16799;50.844;5.304;2023-04-25T06:55:55;7.80;99.90
29939;DHT22;16799;50.844;5.304;2023-04-25T06:58:21;7.80;99.90
29939;DHT22;16799;50.844;5.304;2023-04-25T07:00:46;7.80;99.90
29939;DHT22;16799;50.844;5.304;2023-04-25T07:03:12;7.80;99.90
29939;DHT22;16799;50.844;5.304;2023-04-25T07:05:38;7.60;99.90
29939;DHT22;16799;50.844;5.304;2023-04-25T07:08:03;7.50;99.90
29939;DHT22;16799;50.844;5.304;2023-04-25T07:10:29;7.40;99.90
29939;DHT22;16799;50.844;5.304;2023-04-25T07:12:55;7.30;99.90
29939;DHT22;16799;50.844;5.304;2023-04-25T07:15:21;7.30;99.90
29939;DHT22;16799;50.844;5.304;2023-04-25T07:17:46;7.40;99.90
29939;DHT22;16799;50.844;5.304;2023-04-25T07:20:12;7.40;99.90
29939;DHT22;16799;50.844;5.304;2023-04-25T07:22:38;7.50;99.90
29939;DHT22;16799;50.844;5.304;2023-04-25T07:25:04;7.50;99.90
29939;DHT22;16799;50.844;5.304;2023-04-25T07:27:30;7.70;99.90
29939;DHT22;16799;50.844;5.304;2023-04-25T07:29:56;8.00;99.90
29939;DHT22;16799;50.844;5.304;2023-04-25T07:32:21;8.10;99.90
29939;DHT22;16799;50.844;5.304;2023-04-25T07:34:47;8.20;99.90
29939;DHT22;16799;50.844;5.304;2023-04-25T07:37:13;8.10;99.90
29939;DHT22;16799;50.844;5.304;2023-04-25T07:39:39;8.10;99.90
29939;DHT22;16799;50.844;5.304;2023-04-25T07:42:05;8.40;99.90
29939;DHT22;16799;50.844;5.304;2023-04-25T07:44:33;8.40;99.90
29939;DHT22;16799;50.844;5.304;2023-04-25T07:47:04;8.50;99.90
29939;DHT22;16799;50.844;5.304;2023-04-25T07:49:35;8.30;99.90
29939;DHT22;16799;50.844;5.304;2023-04-25T07:52:02;8.60;99.90
29939;DHT22;16799;50.844;5.304;2023-04-25T07:54:28;8.90;99.90
29939;DHT22;16799;50.844;5.304;2023-04-25T07:56:53;8.90;99.90
29939;DHT22;16799;50.844;5.304;2023-04-25T07:59:19;9.10;99.90
29939;DHT22;16799;50.844;5.304;2023-04-25T08:01:45;9.20;99.90
29939;DHT22;16799;50.844;5.304;2023-04-25T08:04:11;9.50;99.90
29939;DHT22;16799;50.844;5.304;2023-04-25T08:06:36;9.40;99.90
29939;DHT22;16799;50.844;5.304;2023-04-25T08:09:02;9.00;99.90
29939;DHT22;16799;50.844;5.304;2023-04-25T08:11:28;8.90;99.90
29939;DHT22;16799;50.844;5.304;2023-04-25T08:13:54;9.10;99.90
29939;DHT22;16799;50.844;5.304;2023-04-25T08:16:20;9.10;99.90
29939;DHT22;16799;50.844;5.304;2023-04-25T08:18:45;9.30;99.90
29939;DHT22;16799;50.844;5.304;2023-04-25T08:21:11;9.70;99.90
29939;DHT22;16799;50.844;5.304;2023-04-25T08:23:38;9.90;99.90
29939;DHT22;16799;50.844;5.304;2023-04-25T08:26:03;9.90;99.90
29939;DHT22;16799;50.844;5.304;2023-04-25T08:28:30;9.90;99.90
29939;DHT22;16799;50.844;5.304;2023-04-25T08:30:56;10.20;99.90
29939;DHT22;16799;50.844;5.304;2023-04-25T08:33:22;10.20;99.90
29939;DHT22;16799;50.844;5.304;2023-04-25T08:35:48;10.10;99.90
29939;DHT22;16799;50.844;5.304;2023-04-25T08:38:13;10.20;99.90
29939;DHT22;16799;50.844;5.304;2023-04-25T08:40:40;10.40;99.90
29939;DHT22;16799;50.844;5.304;2023-04-25T08:43:07;10.60;99.90
29939;DHT22;16799;50.844;5.304;2023-04-25T08:45:39;10.90;99.90
29939;DHT22;16799;50.844;5.304;2023-04-25T08:48:10;10.80;99.90
29939;DHT22;16799;50.844;5.304;2023-04-25T08:50:45;11.20;99.90
29939;DHT22;16799;50.844;5.304;2023-04-25T08:53:12;11.30;99.90
29939;DHT22;16799;50.844;5.304;2023-04-25T08:55:44;10.80;99.90
29939;DHT22;16799;50.844;5.304;2023-04-25T08:58:11;10.80;99.90
29939;DHT22;16799;50.844;5.304;2023-04-25T09:00:38;10.40;99.60
29939;DHT22;16799;50.844;5.304;2023-04-25T09:03:04;10.40;99.90
29939;DHT22;16799;50.844;5.304;2023-04-25T09:05:34;10.20;99.90
29939;DHT22;16799;50.844;5.304;2023-04-25T09:08:01;10.40;99.90
29939;DHT22;16799;50.844;5.304;2023-04-25T09:10:27;10.10;99.00
29939;DHT22;16799;50.844;5.304;2023-04-25T09:13:09;9.80;99.90
29939;DHT22;16799;50.844;5.304;2023-04-25T09:15:51;9.70;99.90
29939;DHT22;16799;50.844;5.304;2023-04-25T09:18:30;9.70;99.90
29939;DHT22;16799;50.844;5.304;2023-04-25T09:21:09;9.50;99.90
29939;DHT22;16799;50.844;5.304;2023-04-25T09:23:47;9.40;99.90
29939;DHT22;16799;50.844;5.304;2023-04-25T09:26:20;9.40;99.90
29939;DHT22;16799;50.844;5.304;2023-04-25T09:28:47;9.30;99.50
29939;DHT22;16799;50.844;5.304;2023-04-25T09:31:22;9.10;98.70
29939;DHT22;16799;50.844;5.304;2023-04-25T09:33:49;8.90;97.80
29939;DHT22;16799;50.844;5.304;2023-04-25T09:36:15;9.00;98.40
29939;DHT22;16799;50.844;5.304;2023-04-25T09:38:46;9.30;97.70
29939;DHT22;16799;50.844;5.304;2023-04-25T09:41:12;9.50;97.30
29939;DHT22;16799;50.844;5.304;2023-04-25T09:43:39;9.70;96.70
29939;DHT22;16799;50.844;5.304;2023-04-25T09:46:11;9.90;96.80
29939;DHT22;16799;50.844;5.304;2023-04-25T09:48:37;10.00;96.20
29939;DHT22;16799;50.844;5.304;2023-04-25T09:53:29;11.10;99.30
29939;DHT22;16799;50.844;5.304;2023-04-25T09:55:55;11.40;94.90
29939;DHT22;16799;50.844;5.304;2023-04-25T09:58:24;11.90;95.30
29939;DHT22;16799;50.844;5.304;2023-04-25T10:00:50;11.40;89.10
29939;DHT22;16799;50.844;5.304;2023-04-25T10:03:18;11.30;92.90
29939;DHT22;16799;50.844;5.304;2023-04-25T10:05:47;12.00;94.10
29939;DHT22;16799;50.844;5.304;2023-04-25T10:08:15;12.20;91.90
29939;DHT22;16799;50.844;5.304;2023-04-25T10:10:42;12.30;93.40
29939;DHT22;16799;50.844;5.304;2023-04-25T10:13:08;13.10;90.70
29939;DHT22;16799;50.844;5.304;2023-04-25T10:15:35;12.80;83.80
29939;DHT22;16799;50.844;5.304;2023-04-25T10:18:03;12.10;83.20
29939;DHT22;16799;50.844;5.304;2023-04-25T10:20:30;12.00;90.70
29939;DHT22;16799;50.844;5.304;2023-04-25T10:23:02;12.40;88.40
29939;DHT22;16799;50.844;5.304;2023-04-25T10:25:29;11.50;87.30
29939;DHT22;16799;50.844;5.304;2023-04-25T10:27:55;11.50;93.40
29939;DHT22;16799;50.844;5.304;2023-04-25T10:30:21;11.90;86.40
29939;DHT22;16799;50.844;5.304;2023-04-25T10:32:46;12.20;87.70
29939;DHT22;16799;50.844;5.304;2023-04-25T10:35:29;11.90;89.20
29939;DHT22;16799;50.844;5.304;2023-04-25T10:40:25;10.80;87.10
29939;DHT22;16799;50.844;5.304;2023-04-25T10:42:55;10.40;90.30
29939;DHT22;16799;50.844;5.304;2023-04-25T10:45:22;10.40;90.80
29939;DHT22;16799;50.844;5.304;2023-04-25T10:47:48;10.50;92.50
29939;DHT22;16799;50.844;5.304;2023-04-25T10:50:17;10.70;96.70
29939;DHT22;16799;50.844;5.304;2023-04-25T10:52:43;10.80;96.20
29939;DHT22;16799;50.844;5.304;2023-04-25T10:55:09;11.30;97.30
29939;DHT22;16799;50.844;5.304;2023-04-25T10:57:43;11.50;97.50
29939;DHT22;16799;50.844;5.304;2023-04-25T11:00:19;11.80;93.00
29939;DHT22;16799;50.844;5.304;2023-04-25T11:02:58;12.00;93.80
29939;DHT22;16799;50.844;5.304;2023-04-25T11:05:35;12.30;91.30
29939;DHT22;16799;50.844;5.304;2023-04-25T11:08:02;12.60;91.20
29939;DHT22;16799;50.844;5.304;2023-04-25T11:10:32;13.20;89.80
29939;DHT22;16799;50.844;5.304;2023-04-25T11:13:00;13.50;84.80
29939;DHT22;16799;50.844;5.304;2023-04-25T11:15:27;13.70;85.00
29939;DHT22;16799;50.844;5.304;2023-04-25T11:17:53;14.30;87.80
29939;DHT22;16799;50.844;5.304;2023-04-25T11:20:20;14.80;80.10
29939;DHT22;16799;50.844;5.304;2023-04-25T11:22:46;14.90;78.10
29939;DHT22;16799;50.844;5.304;2023-04-25T11:25:14;13.50;79.20
29939;DHT22;16799;50.844;5.304;2023-04-25T11:27:54;13.10;88.50
29939;DHT22;16799;50.844;5.304;2023-04-25T11:30:22;13.30;78.10
29939;DHT22;16799;50.844;5.304;2023-04-25T11:32:47;13.50;79.30
29939;DHT22;16799;50.844;5.304;2023-04-25T11:35:13;13.70;77.40
29939;DHT22;16799;50.844;5.304;2023-04-25T11:37:41;13.60;76.70
29939;DHT22;16799;50.844;5.304;2023-04-25T11:40:08;13.50;74.10
29939;DHT22;16799;50.844;5.304;2023-04-25T11:42:43;13.50;71.80
29939;DHT22;16799;50.844;5.304;2023-04-25T11:45:10;14.20;76.50
29939;DHT22;16799;50.844;5.304;2023-04-25T11:47:36;15.10;67.80
29939;DHT22;16799;50.844;5.304;2023-04-25T11:50:07;15.80;70.00
29939;DHT22;16799;50.844;5.304;2023-04-25T11:52:44;15.50;61.70
29939;DHT22;16799;50.844;5.304;2023-04-25T11:55:13;15.30;57.00
29939;DHT22;16799;50.844;5.304;2023-04-25T11:57:41;15.40;56.80
29939;DHT22;16799;50.844;5.304;2023-04-25T12:00:19;16.70;60.60
29939;DHT22;16799;50.844;5.304;2023-04-25T12:02:47;17.40;57.80
29939;DHT22;16799;50.844;5.304;2023-04-25T12:05:14;19.10;55.30
29939;DHT22;16799;50.844;5.304;2023-04-25T12:07:43;20.50;52.70
29939;DHT22;16799;50.844;5.304;2023-04-25T12:10:11;18.70;48.10
29939;DHT22;16799;50.844;5.304;2023-04-25T12:12:37;17.90;51.50
29939;DHT22;16799;50.844;5.304;2023-04-25T12:15:14;19.30;52.10
29939;DHT22;16799;50.844;5.304;2023-04-25T12:17:52;20.70;49.40
29939;DHT22;16799;50.844;5.304;2023-04-25T12:20:28;19.30;46.30
29939;DHT22;16799;50.844;5.304;2023-04-25T12:22:57;17.30;50.30
29939;DHT22;16799;50.844;5.304;2023-04-25T12:25:42;16.70;51.70
29939;DHT22;16799;50.844;5.304;2023-04-25T12:28:18;15.50;52.70
29939;DHT22;16799;50.844;5.304;2023-04-25T12:33:24;14.80;57.40
29939;DHT22;16799;50.844;5.304;2023-04-25T12:35:50;15.40;64.40
29939;DHT22;16799;50.844;5.304;2023-04-25T12:40:52;15.10;66.30
29939;DHT22;16799;50.844;5.304;2023-04-25T12:43:17;14.60;74.40
29939;DHT22;16799;50.844;5.304;2023-04-25T12:45:44;14.30;80.10
29939;DHT22;16799;50.844;5.304;2023-04-25T12:48:10;14.30;82.50
29939;DHT22;16799;50.844;5.304;2023-04-25T12:50:36;13.90;79.70
29939;DHT22;16799;50.844;5.304;2023-04-25T12:53:02;13.80;83.70
29939;DHT22;16799;50.844;5.304;2023-04-25T12:55:29;13.80;80.90
29939;DHT22;16799;50.844;5.304;2023-04-25T12:57:55;13.80;84.10
29939;DHT22;16799;50.844;5.304;2023-04-25T13:00:20;14.00;82.10
29939;DHT22;16799;50.844;5.304;2023-04-25T13:02:46;13.60;81.80
29939;DHT22;16799;50.844;5.304;2023-04-25T13:05:12;13.70;78.30
29939;DHT22;16799;50.844;5.304;2023-04-25T13:07:38;12.90;79.60
29939;DHT22;16799;50.844;5.304;2023-04-25T13:10:04;12.90;78.00
29939;DHT22;16799;50.844;5.304;2023-04-25T13:12:31;13.50;78.70
29939;DHT22;16799;50.844;5.304;2023-04-25T13:14:57;15.90;70.70
29939;DHT22;16799;50.844;5.304;2023-04-25T13:17:22;17.50;67.10
29939;DHT22;16799;50.844;5.304;2023-04-25T13:19:48;18.80;63.50
29939;DHT22;16799;50.844;5.304;2023-04-25T13:22:14;17.00;58.00
29939;DHT22;16799;50.844;5.304;2023-04-25T13:24:42;17.30;65.40
29939;DHT22;16799;50.844;5.304;2023-04-25T13:27:08;19.50;65.10
29939;DHT22;16799;50.844;5.304;2023-04-25T13:29:33;22.30;56.50
29939;DHT22;16799;50.844;5.304;2023-04-25T13:32:01;23.00;49.70
29939;DHT22;16799;50.844;5.304;2023-04-25T13:34:28;21.60;51.90
29939;DHT22;16799;50.844;5.304;2023-04-25T13:36:53;20.10;50.80
29939;DHT22;16799;50.844;5.304;2023-04-25T13:39:20;18.50;55.50
29939;DHT22;16799;50.844;5.304;2023-04-25T13:41:45;17.50;60.40
29939;DHT22;16799;50.844;5.304;2023-04-25T13:44:11;16.70;62.00
29939;DHT22;16799;50.844;5.304;2023-04-25T13:46:37;15.70;66.30
29939;DHT22;16799;50.844;5.304;2023-04-25T13:49:03;14.00;69.90
29939;DHT22;16799;50.844;5.304;2023-04-25T13:51:29;12.90;75.00
29939;DHT22;16799;50.844;5.304;2023-04-25T13:53:56;12.50;77.40
29939;DHT22;16799;50.844;5.304;2023-04-25T13:56:22;11.90;81.60
29939;DHT22;16799;50.844;5.304;2023-04-25T13:58:49;11.80;82.80
29939;DHT22;16799;50.844;5.304;2023-04-25T14:01:15;11.90;84.90
29939;DHT22;16799;50.844;5.304;2023-04-25T14:03:41;12.70;80.50
29939;DHT22;16799;50.844;5.304;2023-04-25T14:06:07;13.90;76.10
29939;DHT22;16799;50.844;5.304;2023-04-25T14:08:34;13.70;75.30
29939;DHT22;16799;50.844;5.304;2023-04-25T14:11:00;13.40;75.80
29939;DHT22;16799;50.844;5.304;2023-04-25T14:13:26;13.90;77.40
29939;DHT22;16799;50.844;5.304;2023-04-25T14:15:52;15.20;75.70
29939;DHT22;16799;50.844;5.304;2023-04-25T14:18:18;15.40;69.90
29939;DHT22;16799;50.844;5.304;2023-04-25T14:20:45;14.70;68.50
29939;DHT22;16799;50.844;5.304;2023-04-25T14:23:10;15.90;66.20
29939;DHT22;16799;50.844;5.304;2023-04-25T14:25:36;17.70;61.90
29939;DHT22;16799;50.844;5.304;2023-04-25T14:28:02;18.40;58.80
29939;DHT22;16799;50.844;5.304;2023-04-25T14:30:28;19.90;56.80
29939;DHT22;16799;50.844;5.304;2023-04-25T14:32:54;19.30;54.80
29939;DHT22;16799;50.844;5.304;2023-04-25T14:35:19;19.20;60.30
29939;DHT22;16799;50.844;5.304;2023-04-25T14:37:45;21.10;54.60
29939;DHT22;16799;50.844;5.304;2023-04-25T14:40:12;21.30;47.60
29939;DHT22;16799;50.844;5.304;2023-04-25T14:42:40;20.50;45.80
29939;DHT22;16799;50.844;5.304;2023-04-25T14:45:07;20.20;49.10
29939;DHT22;16799;50.844;5.304;2023-04-25T14:47:34;19.40;48.50
29939;DHT22;16799;50.844;5.304;2023-04-25T14:50:00;19.90;46.10
29939;DHT22;16799;50.844;5.304;2023-04-25T14:52:27;18.90;46.60
29939;DHT22;16799;50.844;5.304;2023-04-25T14:54:52;18.20;45.40
29939;DHT22;16799;50.844;5.304;2023-04-25T14:57:18;19.50;49.20
29939;DHT22;16799;50.844;5.304;2023-04-25T14:59:44;20.20;45.50
29939;DHT22;16799;50.844;5.304;2023-04-25T15:02:11;19.80;47.60
29939;DHT22;16799;50.844;5.304;2023-04-25T15:04:36;18.80;48.60
29939;DHT22;16799;50.844;5.304;2023-04-25T15:07:02;17.80;52.40
29939;DHT22;16799;50.844;5.304;2023-04-25T15:09:28;17.70;56.10
29939;DHT22;16799;50.844;5.304;2023-04-25T15:11:53;17.50;53.80
29939;DHT22;16799;50.844;5.304;2023-04-25T15:14:19;17.60;53.50
29939;DHT22;16799;50.844;5.304;2023-04-25T15:16:45;17.20;53.10
29939;DHT22;16799;50.844;5.304;2023-04-25T15:19:11;16.80;54.50
29939;DHT22;16799;50.844;5.304;2023-04-25T15:21:36;16.40;56.90
29939;DHT22;16799;50.844;5.304;2023-04-25T15:24:02;15.20;55.20
29939;DHT22;16799;50.844;5.304;2023-04-25T15:26:28;13.90;58.60
29939;DHT22;16799;50.844;5.304;2023-04-25T15:28:54;13.90;61.20
29939;DHT22;16799;50.844;5.304;2023-04-25T15:31:19;14.30;66.90
29939;DHT22;16799;50.844;5.304;2023-04-25T15:33:45;15.00;63.20
29939;DHT22;16799;50.844;5.304;2023-04-25T15:36:11;16.10;62.70
29939;DHT22;16799;50.844;5.304;2023-04-25T15:38:37;17.30;58.40
29939;DHT22;16799;50.844;5.304;2023-04-25T15:41:03;17.50;55.90
29939;DHT22;16799;50.844;5.304;2023-04-25T15:43:30;17.70;56.40
29939;DHT22;16799;50.844;5.304;2023-04-25T15:45:55;19.40;54.90
29939;DHT22;16799;50.844;5.304;2023-04-25T15:48:21;20.00;52.40